sensor_id;sensor_type;location;lat;lon;timestamp;P1;durP1;ratioP1;P2;durP2;ratioP2
47161;SDS011;32921;53.256;8.198;2022-09-12T00:03:40;24.52;;;16.83;;
47161;SDS011;32921;53.256;8.198;2022-09-12T00:06:07;26.92;;;17.50;;
47161;SDS011;32921;53.256;8.198;2022-09-12T00:08:46;23.70;;;17.10;;
47161;SDS011;32921;53.256;8.198;2022-09-12T00:11:12;26.23;;;17.25;;
47161;SDS011;32921;53.256;8.198;2022-09-12T00:13:38;26.67;;;16.67;;
47161;SDS011;32921;53.256;8.198;2022-09-12T00:16:05;24.10;;;17.58;;
47161;SDS011;32921;53.256;8.198;2022-09-12T00:18:31;22.90;;;15.98;;
47161;SDS011;32921;53.256;8.198;2022-09-12T00:21:00;23.10;;;15.48;;
47161;SDS011;32921;53.256;8.198;2022-09-12T00:23:28;24.30;;;15.60;;
47161;SDS011;32921;53.256;8.198;2022-09-12T00:25:54;23.83;;;16.23;;
47161;SDS011;32921;53.256;8.198;2022-09-12T00:28:19;25.90;;;16.25;;
47161;SDS011;32921;53.256;8.198;2022-09-12T00:30:46;22.50;;;15.60;;
47161;SDS011;32921;53.256;8.198;2022-09-12T00:33:13;20.55;;;15.43;;
47161;SDS011;32921;53.256;8.198;2022-09-12T00:35:41;21.70;;;15.75;;
47161;SDS011;32921;53.256;8.198;2022-09-12T00:38:08;22.98;;;16.50;;
47161;SDS011;32921;53.256;8.198;2022-09-12T00:40:33;22.90;;;15.52;;
47161;SDS011;32921;53.256;8.198;2022-09-12T00:42:59;23.20;;;15.23;;
47161;SDS011;32921;53.256;8.198;2022-09-12T00:45:26;21.27;;;15.05;;
47161;SDS011;32921;53.256;8.198;2022-09-12T00:47:53;21.40;;;16.08;;
47161;SDS011;32921;53.256;8.198;2022-09-12T00:50:20;22.05;;;15.52;;
47161;SDS011;32921;53.256;8.198;2022-09-12T00:52:49;20.55;;;15.15;;
47161;SDS011;32921;53.256;8.198;2022-09-12T00:57:53;22.50;;;15.60;;
47161;SDS011;32921;53.256;8.198;2022-09-12T01:00:38;28.05;;;17.98;;
47161;SDS011;32921;53.256;8.198;2022-09-12T01:03:04;27.65;;;17.73;;
47161;SDS011;32921;53.256;8.198;2022-09-12T01:05:33;23.80;;;16.15;;
47161;SDS011;32921;53.256;8.198;2022-09-12T01:08:02;28.08;;;18.88;;
47161;SDS011;32921;53.256;8.198;2022-09-12T01:10:28;26.55;;;18.15;;
47161;SDS011;32921;53.256;8.198;2022-09-12T01:12:54;25.52;;;16.58;;
47161;SDS011;32921;53.256;8.198;2022-09-12T01:15:21;33.20;;;19.65;;
47161;SDS011;32921;53.256;8.198;2022-09-12T01:25:50;29.77;;;18.42;;
47161;SDS011;32921;53.256;8.198;2022-09-12T01:37:10;37.35;;;22.05;;
47161;SDS011;32921;53.256;8.198;2022-09-12T01:42:27;39.60;;;23.25;;
47161;SDS011;32921;53.256;8.198;2022-09-12T01:45:04;42.50;;;24.45;;
47161;SDS011;32921;53.256;8.198;2022-09-12T01:47:39;34.80;;;22.38;;
47161;SDS011;32921;53.256;8.198;2022-09-12T01:50:20;35.60;;;22.13;;
47161;SDS011;32921;53.256;8.198;2022-09-12T01:52:55;34.22;;;21.70;;
47161;SDS011;32921;53.256;8.198;2022-09-12T01:55:29;36.75;;;23.48;;
47161;SDS011;32921;53.256;8.198;2022-09-12T01:58:11;36.85;;;24.08;;
47161;SDS011;32921;53.256;8.198;2022-09-12T02:00:46;40.65;;;24.65;;
47161;SDS011;32921;53.256;8.198;2022-09-12T02:03:33;47.38;;;26.50;;
47161;SDS011;32921;53.256;8.198;2022-09-12T02:06:32;49.25;;;29.98;;
47161;SDS011;32921;53.256;8.198;2022-09-12T02:09:23;46.40;;;28.08;;
47161;SDS011;32921;53.256;8.198;2022-09-12T02:11:56;48.38;;;29.42;;
47161;SDS011;32921;53.256;8.198;2022-09-12T02:14:25;47.00;;;27.38;;
47161;SDS011;32921;53.256;8.198;2022-09-12T02:16:58;41.83;;;26.40;;
47161;SDS011;32921;53.256;8.198;2022-09-12T02:19:31;53.92;;;28.63;;
47161;SDS011;32921;53.256;8.198;2022-09-12T02:22:01;61.17;;;32.72;;
47161;SDS011;32921;53.256;8.198;2022-09-12T02:24:30;51.85;;;29.17;;
47161;SDS011;32921;53.256;8.198;2022-09-12T02:27:10;44.75;;;28.27;;
47161;SDS011;32921;53.256;8.198;2022-09-12T02:29:39;45.53;;;27.38;;
47161;SDS011;32921;53.256;8.198;2022-09-12T02:32:49;41.38;;;24.88;;
47161;SDS011;32921;53.256;8.198;2022-09-12T02:35:06;44.45;;;26.48;;
47161;SDS011;32921;53.256;8.198;2022-09-12T02:37:42;45.58;;;26.40;;
47161;SDS011;32921;53.256;8.198;2022-09-12T02:40:16;39.28;;;23.27;;
47161;SDS011;32921;53.256;8.198;2022-09-12T02:42:42;36.72;;;21.38;;
47161;SDS011;32921;53.256;8.198;2022-09-12T02:45:08;40.20;;;22.63;;
47161;SDS011;32921;53.256;8.198;2022-09-12T02:47:37;34.05;;;19.38;;
47161;SDS011;32921;53.256;8.198;2022-09-12T02:50:07;34.30;;;20.15;;
47161;SDS011;32921;53.256;8.198;2022-09-12T02:52:34;36.20;;;22.30;;
47161;SDS011;32921;53.256;8.198;2022-09-12T02:55:00;41.92;;;25.98;;
47161;SDS011;32921;53.256;8.198;2022-09-12T02:57:28;35.22;;;23.83;;
47161;SDS011;32921;53.256;8.198;2022-09-12T02:59:54;58.42;;;30.35;;
47161;SDS011;32921;53.256;8.198;2022-09-12T03:05:31;54.35;;;29.48;;
47161;SDS011;32921;53.256;8.198;2022-09-12T03:11:24;41.22;;;26.25;;
47161;SDS011;32921;53.256;8.198;2022-09-12T03:16:48;55.45;;;31.08;;
47161;SDS011;32921;53.256;8.198;2022-09-12T03:22:27;54.47;;;30.88;;
47161;SDS011;32921;53.256;8.198;2022-09-12T03:27:45;52.05;;;30.98;;
47161;SDS011;32921;53.256;8.198;2022-09-12T03:30:20;52.17;;;30.50;;
47161;SDS011;32921;53.256;8.198;2022-09-12T03:32:46;45.75;;;29.08;;
47161;SDS011;32921;53.256;8.198;2022-09-12T03:35:14;48.45;;;30.92;;
47161;SDS011;32921;53.256;8.198;2022-09-12T03:37:41;49.88;;;31.45;;
47161;SDS011;32921;53.256;8.198;2022-09-12T03:40:08;50.63;;;31.45;;
47161;SDS011;32921;53.256;8.198;2022-09-12T03:42:36;52.95;;;31.90;;
47161;SDS011;32921;53.256;8.198;2022-09-12T03:45:02;53.40;;;31.27;;
47161;SDS011;32921;53.256;8.198;2022-09-12T03:47:29;51.03;;;29.80;;
47161;SDS011;32921;53.256;8.198;2022-09-12T03:49:55;43.70;;;28.55;;
47161;SDS011;32921;53.256;8.198;2022-09-12T03:52:20;49.00;;;30.85;;
47161;SDS011;32921;53.256;8.198;2022-09-12T03:54:46;43.08;;;28.00;;
47161;SDS011;32921;53.256;8.198;2022-09-12T03:57:12;41.72;;;26.10;;
47161;SDS011;32921;53.256;8.198;2022-09-12T03:59:38;40.13;;;26.85;;
47161;SDS011;32921;53.256;8.198;2022-09-12T04:02:03;44.83;;;28.65;;
47161;SDS011;32921;53.256;8.198;2022-09-12T04:04:29;46.80;;;28.95;;
47161;SDS011;32921;53.256;8.198;2022-09-12T04:06:55;46.45;;;28.95;;
47161;SDS011;32921;53.256;8.198;2022-09-12T04:09:21;41.28;;;27.75;;
47161;SDS011;32921;53.256;8.198;2022-09-12T04:11:47;42.88;;;27.92;;
47161;SDS011;32921;53.256;8.198;2022-09-12T04:14:12;48.65;;;30.50;;
47161;SDS011;32921;53.256;8.198;2022-09-12T04:16:38;50.17;;;31.15;;
47161;SDS011;32921;53.256;8.198;2022-09-12T04:19:03;41.40;;;28.15;;
47161;SDS011;32921;53.256;8.198;2022-09-12T04:21:29;51.47;;;31.98;;
47161;SDS011;32921;53.256;8.198;2022-09-12T04:23:55;55.78;;;34.60;;
47161;SDS011;32921;53.256;8.198;2022-09-12T04:26:20;52.83;;;33.90;;
47161;SDS011;32921;53.256;8.198;2022-09-12T04:28:46;59.58;;;34.80;;
47161;SDS011;32921;53.256;8.198;2022-09-12T04:31:13;55.90;;;34.63;;
47161;SDS011;32921;53.256;8.198;2022-09-12T04:33:44;54.08;;;34.83;;
47161;SDS011;32921;53.256;8.198;2022-09-12T04:36:15;54.80;;;34.08;;
47161;SDS011;32921;53.256;8.198;2022-09-12T04:38:45;48.25;;;32.97;;
47161;SDS011;32921;53.256;8.198;2022-09-12T04:41:15;45.55;;;31.90;;
47161;SDS011;32921;53.256;8.198;2022-09-12T04:43:46;44.47;;;29.80;;
47161;SDS011;32921;53.256;8.198;2022-09-12T04:46:16;40.15;;;27.33;;
47161;SDS011;32921;53.256;8.198;2022-09-12T04:48:44;47.08;;;31.95;;
47161;SDS011;32921;53.256;8.198;2022-09-12T04:54:15;46.33;;;31.38;;
47161;SDS011;32921;53.256;8.198;2022-09-12T04:56:43;42.10;;;29.60;;
47161;SDS011;32921;53.256;8.198;2022-09-12T04:59:10;43.10;;;30.67;;
47161;SDS011;32921;53.256;8.198;2022-09-12T05:01:38;43.00;;;29.73;;
47161;SDS011;32921;53.256;8.198;2022-09-12T05:04:04;45.15;;;31.70;;
47161;SDS011;32921;53.256;8.198;2022-09-12T05:06:30;43.83;;;31.75;;
47161;SDS011;32921;53.256;8.198;2022-09-12T05:08:59;40.95;;;29.67;;
47161;SDS011;32921;53.256;8.198;2022-09-12T05:11:26;52.58;;;37.72;;
47161;SDS011;32921;53.256;8.198;2022-09-12T05:13:54;59.22;;;40.85;;
47161;SDS011;32921;53.256;8.198;2022-09-12T05:16:20;63.20;;;40.92;;
47161;SDS011;32921;53.256;8.198;2022-09-12T05:18:46;62.03;;;41.20;;
47161;SDS011;32921;53.256;8.198;2022-09-12T05:21:13;63.20;;;41.30;;
47161;SDS011;32921;53.256;8.198;2022-09-12T05:23:41;62.60;;;42.25;;
47161;SDS011;32921;53.256;8.198;2022-09-12T05:26:06;54.10;;;37.88;;
47161;SDS011;32921;53.256;8.198;2022-09-12T05:28:36;56.00;;;38.78;;
47161;SDS011;32921;53.256;8.198;2022-09-12T05:31:03;54.63;;;38.28;;
47161;SDS011;32921;53.256;8.198;2022-09-12T05:33:31;56.33;;;39.85;;
47161;SDS011;32921;53.256;8.198;2022-09-12T05:35:57;55.50;;;38.90;;
47161;SDS011;32921;53.256;8.198;2022-09-12T05:38:23;52.42;;;36.72;;
47161;SDS011;32921;53.256;8.198;2022-09-12T05:40:49;49.67;;;36.30;;
47161;SDS011;32921;53.256;8.198;2022-09-12T05:43:15;48.60;;;34.90;;
47161;SDS011;32921;53.256;8.198;2022-09-12T05:45:41;49.55;;;37.22;;
47161;SDS011;32921;53.256;8.198;2022-09-12T05:48:07;50.90;;;36.97;;
47161;SDS011;32921;53.256;8.198;2022-09-12T05:50:33;50.90;;;36.03;;
47161;SDS011;32921;53.256;8.198;2022-09-12T05:52:58;48.75;;;35.58;;
47161;SDS011;32921;53.256;8.198;2022-09-12T05:55:24;48.67;;;35.53;;
47161;SDS011;32921;53.256;8.198;2022-09-12T05:57:50;48.00;;;35.22;;
47161;SDS011;32921;53.256;8.198;2022-09-12T06:00:16;50.58;;;35.65;;
47161;SDS011;32921;53.256;8.198;2022-09-12T06:02:43;52.13;;;36.22;;
47161;SDS011;32921;53.256;8.198;2022-09-12T06:05:08;47.30;;;34.00;;
47161;SDS011;32921;53.256;8.198;2022-09-12T06:07:34;49.42;;;35.17;;
47161;SDS011;32921;53.256;8.198;2022-09-12T06:10:00;50.42;;;35.78;;
47161;SDS011;32921;53.256;8.198;2022-09-12T06:12:27;49.58;;;35.88;;
47161;SDS011;32921;53.256;8.198;2022-09-12T06:14:54;51.13;;;35.88;;
47161;SDS011;32921;53.256;8.198;2022-09-12T06:17:20;51.90;;;36.67;;
47161;SDS011;32921;53.256;8.198;2022-09-12T06:19:46;56.17;;;37.25;;
47161;SDS011;32921;53.256;8.198;2022-09-12T06:22:12;55.72;;;36.80;;
47161;SDS011;32921;53.256;8.198;2022-09-12T06:24:37;49.95;;;34.38;;
47161;SDS011;32921;53.256;8.198;2022-09-12T06:27:03;48.03;;;35.22;;
47161;SDS011;32921;53.256;8.198;2022-09-12T06:29:35;47.65;;;33.75;;
47161;SDS011;32921;53.256;8.198;2022-09-12T06:32:01;52.28;;;34.08;;
47161;SDS011;32921;53.256;8.198;2022-09-12T06:34:26;46.90;;;32.63;;
47161;SDS011;32921;53.256;8.198;2022-09-12T06:36:52;44.15;;;33.42;;
47161;SDS011;32921;53.256;8.198;2022-09-12T06:39:19;43.33;;;34.15;;
47161;SDS011;32921;53.256;8.198;2022-09-12T06:41:46;45.28;;;33.85;;
47161;SDS011;32921;53.256;8.198;2022-09-12T06:44:14;44.63;;;33.25;;
47161;SDS011;32921;53.256;8.198;2022-09-12T06:46:41;46.53;;;33.40;;
47161;SDS011;32921;53.256;8.198;2022-09-12T06:49:08;48.72;;;33.90;;
47161;SDS011;32921;53.256;8.198;2022-09-12T06:51:34;55.10;;;33.97;;
47161;SDS011;32921;53.256;8.198;2022-09-12T06:54:00;42.42;;;29.65;;
47161;SDS011;32921;53.256;8.198;2022-09-12T06:56:27;34.92;;;27.35;;
47161;SDS011;32921;53.256;8.198;2022-09-12T06:58:54;41.40;;;27.55;;
47161;SDS011;32921;53.256;8.198;2022-09-12T07:01:22;33.67;;;26.52;;
47161;SDS011;32921;53.256;8.198;2022-09-12T07:03:49;34.40;;;25.10;;
47161;SDS011;32921;53.256;8.198;2022-09-12T07:06:17;28.33;;;23.83;;
47161;SDS011;32921;53.256;8.198;2022-09-12T07:08:44;28.70;;;22.38;;
47161;SDS011;32921;53.256;8.198;2022-09-12T07:11:21;30.92;;;22.52;;
47161;SDS011;32921;53.256;8.198;2022-09-12T07:13:49;25.65;;;20.48;;
47161;SDS011;32921;53.256;8.198;2022-09-12T07:16:18;26.73;;;19.65;;
47161;SDS011;32921;53.256;8.198;2022-09-12T07:18:48;25.13;;;18.55;;
47161;SDS011;32921;53.256;8.198;2022-09-12T07:21:18;23.25;;;18.88;;
47161;SDS011;32921;53.256;8.198;2022-09-12T07:23:44;24.13;;;18.80;;
47161;SDS011;32921;53.256;8.198;2022-09-12T07:26:11;22.95;;;18.23;;
47161;SDS011;32921;53.256;8.198;2022-09-12T07:28:38;22.17;;;17.70;;
47161;SDS011;32921;53.256;8.198;2022-09-12T07:31:05;23.17;;;18.00;;
47161;SDS011;32921;53.256;8.198;2022-09-12T07:33:31;20.63;;;17.83;;
47161;SDS011;32921;53.256;8.198;2022-09-12T07:36:00;25.35;;;20.13;;
47161;SDS011;32921;53.256;8.198;2022-09-12T07:38:27;26.30;;;19.20;;
47161;SDS011;32921;53.256;8.198;2022-09-12T07:40:53;23.23;;;18.67;;
47161;SDS011;32921;53.256;8.198;2022-09-12T07:43:19;25.23;;;18.77;;
47161;SDS011;32921;53.256;8.198;2022-09-12T07:45:44;24.00;;;20.13;;
47161;SDS011;32921;53.256;8.198;2022-09-12T07:48:10;25.70;;;19.92;;
47161;SDS011;32921;53.256;8.198;2022-09-12T07:50:36;56.67;;;21.60;;
47161;SDS011;32921;53.256;8.198;2022-09-12T07:53:02;25.25;;;19.67;;
47161;SDS011;32921;53.256;8.198;2022-09-12T07:55:28;26.90;;;18.75;;
47161;SDS011;32921;53.256;8.198;2022-09-12T07:57:54;24.70;;;20.13;;
47161;SDS011;32921;53.256;8.198;2022-09-12T08:00:20;29.80;;;19.80;;
47161;SDS011;32921;53.256;8.198;2022-09-12T08:02:49;20.52;;;17.08;;
47161;SDS011;32921;53.256;8.198;2022-09-12T08:05:16;27.65;;;19.33;;
47161;SDS011;32921;53.256;8.198;2022-09-12T08:07:42;25.95;;;18.45;;
47161;SDS011;32921;53.256;8.198;2022-09-12T08:10:08;28.38;;;18.60;;
47161;SDS011;32921;53.256;8.198;2022-09-12T08:12:34;24.80;;;18.42;;
47161;SDS011;32921;53.256;8.198;2022-09-12T08:14:59;22.80;;;17.23;;
47161;SDS011;32921;53.256;8.198;2022-09-12T08:17:25;25.27;;;17.63;;
47161;SDS011;32921;53.256;8.198;2022-09-12T08:19:50;22.85;;;17.77;;
47161;SDS011;32921;53.256;8.198;2022-09-12T08:22:16;21.70;;;17.17;;
47161;SDS011;32921;53.256;8.198;2022-09-12T08:24:46;21.73;;;17.13;;
47161;SDS011;32921;53.256;8.198;2022-09-12T08:27:12;19.75;;;17.13;;
47161;SDS011;32921;53.256;8.198;2022-09-12T08:29:38;21.33;;;16.20;;
47161;SDS011;32921;53.256;8.198;2022-09-12T08:32:04;21.05;;;15.85;;
47161;SDS011;32921;53.256;8.198;2022-09-12T08:34:30;21.73;;;16.25;;
47161;SDS011;32921;53.256;8.198;2022-09-12T08:36:55;19.17;;;15.43;;
47161;SDS011;32921;53.256;8.198;2022-09-12T08:39:21;18.13;;;15.05;;
47161;SDS011;32921;53.256;8.198;2022-09-12T08:41:53;19.67;;;14.55;;
47161;SDS011;32921;53.256;8.198;2022-09-12T08:47:25;20.38;;;15.32;;
47161;SDS011;32921;53.256;8.198;2022-09-12T08:55:41;21.92;;;14.73;;
47161;SDS011;32921;53.256;8.198;2022-09-12T08:58:16;17.13;;;13.30;;
47161;SDS011;32921;53.256;8.198;2022-09-12T09:06:11;17.80;;;12.70;;
47161;SDS011;32921;53.256;8.198;2022-09-12T09:09:03;20.77;;;14.10;;
47161;SDS011;32921;53.256;8.198;2022-09-12T09:17:22;20.55;;;13.02;;
47161;SDS011;32921;53.256;8.198;2022-09-12T09:20:09;19.45;;;14.18;;
47161;SDS011;32921;53.256;8.198;2022-09-12T09:23:07;19.40;;;13.70;;
47161;SDS011;32921;53.256;8.198;2022-09-12T09:25:44;20.55;;;14.80;;
47161;SDS011;32921;53.256;8.198;2022-09-12T09:30:49;19.90;;;15.00;;
47161;SDS011;32921;53.256;8.198;2022-09-12T09:33:22;16.05;;;12.43;;
47161;SDS011;32921;53.256;8.198;2022-09-12T09:36:33;20.60;;;15.02;;
47161;SDS011;32921;53.256;8.198;2022-09-12T09:44:19;22.30;;;15.18;;
47161;SDS011;32921;53.256;8.198;2022-09-12T09:46:45;21.25;;;15.80;;
47161;SDS011;32921;53.256;8.198;2022-09-12T09:49:14;20.17;;;14.55;;
47161;SDS011;32921;53.256;8.198;2022-09-12T09:51:40;17.60;;;13.88;;
47161;SDS011;32921;53.256;8.198;2022-09-12T09:56:33;23.20;;;15.77;;
47161;SDS011;32921;53.256;8.198;2022-09-12T10:04:21;20.08;;;12.90;;
47161;SDS011;32921;53.256;8.198;2022-09-12T10:09:25;15.63;;;11.65;;
47161;SDS011;32921;53.256;8.198;2022-09-12T10:11:57;16.52;;;12.00;;
47161;SDS011;32921;53.256;8.198;2022-09-12T10:14:30;19.98;;;12.02;;
47161;SDS011;32921;53.256;8.198;2022-09-12T10:17:23;16.48;;;11.52;;
47161;SDS011;32921;53.256;8.198;2022-09-12T10:19:52;16.23;;;11.32;;
47161;SDS011;32921;53.256;8.198;2022-09-12T10:22:19;17.63;;;11.75;;
47161;SDS011;32921;53.256;8.198;2022-09-12T10:24:49;16.23;;;11.07;;
47161;SDS011;32921;53.256;8.198;2022-09-12T10:27:24;15.35;;;10.75;;
47161;SDS011;32921;53.256;8.198;2022-09-12T10:30:01;11.75;;;9.07;;
47161;SDS011;32921;53.256;8.198;2022-09-12T10:32:35;16.35;;;10.00;;
47161;SDS011;32921;53.256;8.198;2022-09-12T10:35:07;12.27;;;10.13;;
47161;SDS011;32921;53.256;8.198;2022-09-12T10:37:40;14.50;;;10.13;;
47161;SDS011;32921;53.256;8.198;2022-09-12T10:40:27;15.68;;;9.82;;
47161;SDS011;32921;53.256;8.198;2022-09-12T10:42:59;14.10;;;8.13;;
47161;SDS011;32921;53.256;8.198;2022-09-12T10:45:30;14.27;;;8.70;;
47161;SDS011;32921;53.256;8.198;2022-09-12T10:48:01;11.57;;;8.63;;
47161;SDS011;32921;53.256;8.198;2022-09-12T10:50:59;11.15;;;8.07;;
47161;SDS011;32921;53.256;8.198;2022-09-12T10:53:26;11.95;;;7.40;;
47161;SDS011;32921;53.256;8.198;2022-09-12T10:56:09;9.98;;;7.00;;
47161;SDS011;32921;53.256;8.198;2022-09-12T11:06:57;10.32;;;6.10;;
47161;SDS011;32921;53.256;8.198;2022-09-12T11:09:48;9.50;;;6.15;;
47161;SDS011;32921;53.256;8.198;2022-09-12T11:14:58;12.57;;;6.10;;
47161;SDS011;32921;53.256;8.198;2022-09-12T11:17:30;9.63;;;5.78;;
47161;SDS011;32921;53.256;8.198;2022-09-12T11:25:59;6.70;;;3.90;;
47161;SDS011;32921;53.256;8.198;2022-09-12T11:33:49;7.20;;;4.15;;
47161;SDS011;32921;53.256;8.198;2022-09-12T11:36:21;8.60;;;4.38;;
47161;SDS011;32921;53.256;8.198;2022-09-12T11:41:25;9.40;;;4.88;;
47161;SDS011;32921;53.256;8.198;2022-09-12T11:46:50;6.50;;;4.22;;
47161;SDS011;32921;53.256;8.198;2022-09-12T11:49:17;8.85;;;4.47;;
47161;SDS011;32921;53.256;8.198;2022-09-12T11:57:44;8.93;;;4.30;;
47161;SDS011;32921;53.256;8.198;2022-09-12T12:00:21;7.18;;;4.57;;
47161;SDS011;32921;53.256;8.198;2022-09-12T12:02:58;7.40;;;5.05;;
47161;SDS011;32921;53.256;8.198;2022-09-12T12:05:33;10.13;;;5.10;;
47161;SDS011;32921;53.256;8.198;2022-09-12T12:08:23;9.15;;;5.00;;
47161;SDS011;32921;53.256;8.198;2022-09-12T12:11:00;8.10;;;4.80;;
47161;SDS011;32921;53.256;8.198;2022-09-12T12:13:48;8.00;;;4.72;;
47161;SDS011;32921;53.256;8.198;2022-09-12T12:19:37;8.15;;;5.50;;
47161;SDS011;32921;53.256;8.198;2022-09-12T12:21:38;11.35;;;6.93;;
47161;SDS011;32921;53.256;8.198;2022-09-12T12:29:08;8.95;;;6.50;;
47161;SDS011;32921;53.256;8.198;2022-09-12T12:34:27;9.32;;;5.97;;
47161;SDS011;32921;53.256;8.198;2022-09-12T12:47:58;12.13;;;7.07;;
47161;SDS011;32921;53.256;8.198;2022-09-12T12:50:31;12.98;;;6.90;;
47161;SDS011;32921;53.256;8.198;2022-09-12T12:57:58;13.13;;;8.38;;
47161;SDS011;32921;53.256;8.198;2022-09-12T13:00:27;14.70;;;8.05;;
47161;SDS011;32921;53.256;8.198;2022-09-12T13:05:29;10.82;;;7.57;;
47161;SDS011;32921;53.256;8.198;2022-09-12T13:08:22;14.63;;;8.57;;
47161;SDS011;32921;53.256;8.198;2022-09-12T13:10:57;11.82;;;8.02;;
47161;SDS011;32921;53.256;8.198;2022-09-12T13:16:07;12.05;;;7.85;;
47161;SDS011;32921;53.256;8.198;2022-09-12T13:18:42;13.68;;;9.02;;
47161;SDS011;32921;53.256;8.198;2022-09-12T13:21:13;13.25;;;7.75;;
47161;SDS011;32921;53.256;8.198;2022-09-12T13:23:40;14.80;;;7.97;;
47161;SDS011;32921;53.256;8.198;2022-09-12T13:26:22;13.18;;;8.15;;
47161;SDS011;32921;53.256;8.198;2022-09-12T13:31:48;15.82;;;8.63;;
47161;SDS011;32921;53.256;8.198;2022-09-12T13:37:42;14.88;;;6.72;;
47161;SDS011;32921;53.256;8.198;2022-09-12T13:43:40;10.70;;;6.50;;
47161;SDS011;32921;53.256;8.198;2022-09-12T13:46:12;9.98;;;5.80;;
47161;SDS011;32921;53.256;8.198;2022-09-12T13:48:42;12.77;;;7.35;;
47161;SDS011;32921;53.256;8.198;2022-09-12T13:51:12;11.85;;;7.45;;
47161;SDS011;32921;53.256;8.198;2022-09-12T13:53:47;11.63;;;7.40;;
47161;SDS011;32921;53.256;8.198;2022-09-12T13:56:15;12.05;;;6.53;;
47161;SDS011;32921;53.256;8.198;2022-09-12T13:58:49;13.00;;;7.32;;
47161;SDS011;32921;53.256;8.198;2022-09-12T14:01:18;14.00;;;7.13;;
47161;SDS011;32921;53.256;8.198;2022-09-12T14:06:33;9.50;;;6.15;;
47161;SDS011;32921;53.256;8.198;2022-09-12T14:09:20;10.07;;;6.38;;
47161;SDS011;32921;53.256;8.198;2022-09-12T14:11:48;11.48;;;7.00;;
47161;SDS011;32921;53.256;8.198;2022-09-12T14:14:17;12.50;;;6.60;;
47161;SDS011;32921;53.256;8.198;2022-09-12T14:16:57;11.13;;;7.07;;
47161;SDS011;32921;53.256;8.198;2022-09-12T14:19:24;10.80;;;6.45;;
47161;SDS011;32921;53.256;8.198;2022-09-12T14:21:55;12.85;;;6.70;;
47161;SDS011;32921;53.256;8.198;2022-09-12T14:24:21;10.90;;;7.70;;
47161;SDS011;32921;53.256;8.198;2022-09-12T14:26:48;9.68;;;6.70;;
47161;SDS011;32921;53.256;8.198;2022-09-12T14:29:19;12.93;;;7.38;;
47161;SDS011;32921;53.256;8.198;2022-09-12T14:31:46;13.32;;;7.85;;
47161;SDS011;32921;53.256;8.198;2022-09-12T14:34:27;12.27;;;6.32;;
47161;SDS011;32921;53.256;8.198;2022-09-12T14:36:54;11.13;;;5.68;;
47161;SDS011;32921;53.256;8.198;2022-09-12T14:42:14;9.80;;;5.18;;
47161;SDS011;32921;53.256;8.198;2022-09-12T14:44:42;11.27;;;6.45;;
47161;SDS011;32921;53.256;8.198;2022-09-12T14:47:25;15.65;;;6.35;;
47161;SDS011;32921;53.256;8.198;2022-09-12T14:49:53;10.38;;;5.40;;
47161;SDS011;32921;53.256;8.198;2022-09-12T14:52:29;10.27;;;5.57;;
47161;SDS011;32921;53.256;8.198;2022-09-12T14:55:01;9.93;;;5.40;;
47161;SDS011;32921;53.256;8.198;2022-09-12T14:57:43;8.50;;;5.05;;
47161;SDS011;32921;53.256;8.198;2022-09-12T15:02:46;14.93;;;5.35;;
47161;SDS011;32921;53.256;8.198;2022-09-12T15:05:14;10.73;;;5.97;;
47161;SDS011;32921;53.256;8.198;2022-09-12T15:07:52;11.52;;;5.55;;
47161;SDS011;32921;53.256;8.198;2022-09-12T15:10:36;11.80;;;5.38;;
47161;SDS011;32921;53.256;8.198;2022-09-12T15:13:03;10.90;;;5.60;;
47161;SDS011;32921;53.256;8.198;2022-09-12T15:15:35;11.35;;;5.93;;
47161;SDS011;32921;53.256;8.198;2022-09-12T15:18:02;10.38;;;5.60;;
47161;SDS011;32921;53.256;8.198;2022-09-12T15:20:29;8.38;;;5.05;;
47161;SDS011;32921;53.256;8.198;2022-09-12T15:22:55;9.27;;;4.22;;
47161;SDS011;32921;53.256;8.198;2022-09-12T15:25:21;8.88;;;4.88;;
47161;SDS011;32921;53.256;8.198;2022-09-12T15:27:47;8.02;;;4.93;;
47161;SDS011;32921;53.256;8.198;2022-09-12T15:30:16;8.98;;;5.55;;
47161;SDS011;32921;53.256;8.198;2022-09-12T15:32:41;10.00;;;5.47;;
47161;SDS011;32921;53.256;8.198;2022-09-12T15:35:11;10.57;;;5.30;;
47161;SDS011;32921;53.256;8.198;2022-09-12T15:37:44;11.55;;;5.60;;
47161;SDS011;32921;53.256;8.198;2022-09-12T15:40:10;10.77;;;5.75;;
47161;SDS011;32921;53.256;8.198;2022-09-12T15:42:36;8.52;;;5.40;;
47161;SDS011;32921;53.256;8.198;2022-09-12T15:45:18;8.88;;;5.47;;
47161;SDS011;32921;53.256;8.198;2022-09-12T15:47:47;9.32;;;5.30;;
47161;SDS011;32921;53.256;8.198;2022-09-12T15:50:13;8.70;;;5.25;;
47161;SDS011;32921;53.256;8.198;2022-09-12T15:52:39;11.60;;;5.80;;
47161;SDS011;32921;53.256;8.198;2022-09-12T15:55:05;10.27;;;5.30;;
47161;SDS011;32921;53.256;8.198;2022-09-12T15:57:41;13.55;;;5.80;;
47161;SDS011;32921;53.256;8.198;2022-09-12T16:00:07;6.97;;;4.97;;
47161;SDS011;32921;53.256;8.198;2022-09-12T16:02:34;7.97;;;4.82;;
47161;SDS011;32921;53.256;8.198;2022-09-12T16:04:59;8.40;;;4.68;;
47161;SDS011;32921;53.256;8.198;2022-09-12T16:07:25;9.35;;;4.70;;
47161;SDS011;32921;53.256;8.198;2022-09-12T16:09:51;7.07;;;4.75;;
47161;SDS011;32921;53.256;8.198;2022-09-12T16:12:16;8.27;;;4.95;;
47161;SDS011;32921;53.256;8.198;2022-09-12T16:14:42;10.40;;;5.00;;
47161;SDS011;32921;53.256;8.198;2022-09-12T16:17:08;10.13;;;4.60;;
47161;SDS011;32921;53.256;8.198;2022-09-12T16:19:34;8.52;;;4.78;;
47161;SDS011;32921;53.256;8.198;2022-09-12T16:22:00;8.45;;;4.45;;
47161;SDS011;32921;53.256;8.198;2022-09-12T16:24:26;8.85;;;5.35;;
47161;SDS011;32921;53.256;8.198;2022-09-12T16:26:51;8.10;;;4.20;;
47161;SDS011;32921;53.256;8.198;2022-09-12T16:29:17;7.78;;;4.53;;
47161;SDS011;32921;53.256;8.198;2022-09-12T16:31:43;8.38;;;4.70;;
47161;SDS011;32921;53.256;8.198;2022-09-12T16:34:09;7.65;;;4.05;;
47161;SDS011;32921;53.256;8.198;2022-09-12T16:36:35;7.38;;;4.22;;
47161;SDS011;32921;53.256;8.198;2022-09-12T16:39:00;7.43;;;4.13;;
47161;SDS011;32921;53.256;8.198;2022-09-12T16:41:26;8.43;;;4.07;;
47161;SDS011;32921;53.256;8.198;2022-09-12T16:43:52;10.18;;;3.95;;
47161;SDS011;32921;53.256;8.198;2022-09-12T16:46:19;5.85;;;3.90;;
47161;SDS011;32921;53.256;8.198;2022-09-12T16:48:56;6.20;;;3.78;;
47161;SDS011;32921;53.256;8.198;2022-09-12T16:51:23;7.90;;;3.45;;
47161;SDS011;32921;53.256;8.198;2022-09-12T16:53:52;7.40;;;3.30;;
47161;SDS011;32921;53.256;8.198;2022-09-12T16:56:18;8.70;;;3.80;;
47161;SDS011;32921;53.256;8.198;2022-09-12T16:58:44;6.05;;;3.63;;
47161;SDS011;32921;53.256;8.198;2022-09-12T17:01:11;6.78;;;3.55;;
47161;SDS011;32921;53.256;8.198;2022-09-12T17:03:38;5.57;;;3.25;;
47161;SDS011;32921;53.256;8.198;2022-09-12T17:06:14;10.15;;;3.90;;
47161;SDS011;32921;53.256;8.198;2022-09-12T17:08:43;6.43;;;3.15;;
47161;SDS011;32921;53.256;8.198;2022-09-12T17:11:11;9.43;;;3.42;;
47161;SDS011;32921;53.256;8.198;2022-09-12T17:13:38;6.45;;;3.40;;
47161;SDS011;32921;53.256;8.198;2022-09-12T17:16:05;6.45;;;3.63;;
47161;SDS011;32921;53.256;8.198;2022-09-12T17:18:35;7.15;;;3.63;;
47161;SDS011;32921;53.256;8.198;2022-09-12T17:21:01;7.20;;;3.70;;
47161;SDS011;32921;53.256;8.198;2022-09-12T17:23:27;6.75;;;3.80;;
47161;SDS011;32921;53.256;8.198;2022-09-12T17:25:53;7.68;;;3.88;;
47161;SDS011;32921;53.256;8.198;2022-09-12T17:28:19;6.18;;;3.28;;